Time,TemperatureF,DewpointF,PressureIn,WindDirection,WindDirectionDegrees,WindSpeedMPH,WindSpeedGustMPH,Humidity,HourlyPrecipIn,Conditions,Clouds,dailyrainin,SolarRadiationWatts/m^2,SoftwareType,DateUTC
2013-09-06 00:01:00,67.0,46.0,-100.00,NNW,344,6.0,8.0,47,0.00,,,0.00,0.000000,,2013-09-06 07:01:00,
2013-09-06 00:23:00,67.0,46.0,-100.00,NNW,344,6.0,8.0,47,0.00,,,0.00,0.000000,,2013-09-06 07:23:00,
2013-09-06 00:52:00,66.0,46.0,-100.00,NE,51,5.0,8.0,48,0.00,,,0.00,0.000000,,2013-09-06 07:52:00,
2013-09-06 01:03:00,66.0,46.0,-100.00,NE,51,5.0,8.0,48,0.00,,,0.00,0.000000,,2013-09-06 08:03:00,
2013-09-06 01:22:00,66.0,46.0,-100.00,NE,51,5.0,8.0,48,0.00,,,0.00,0.000000,,2013-09-06 08:22:00,
2013-09-06 01:52:00,64.0,45.0,-100.00,NW,304,5.0,9.0,50,0.00,,,-99.99,0.000000,,2013-09-06 08:52:00,
2013-09-06 02:01:00,64.0,45.0,-100.00,NW,304,5.0,9.0,50,0.00,,,-99.99,0.000000,,2013-09-06 09:01:00,
2013-09-06 02:22:00,64.0,45.0,-100.00,NW,304,5.0,9.0,50,0.00,,,-99.99,0.000000,,2013-09-06 09:22:00,
2013-09-06 08:11:00,63.0,47.0,-100.00,North,6,9.0,11.0,55,-99.99,,,0.00,38.000000,,2013-09-06 15:11:00,
2013-09-06 10:53:00,83.0,39.0,-100.00,ESE,112,5.0,11.0,21,0.00,,,0.00,719.000000,,2013-09-06 17:53:00,
2013-09-06 11:02:00,83.0,39.0,-100.00,ESE,112,5.0,11.0,21,0.00,,,0.00,719.000000,,2013-09-06 18:02:00,
2013-09-06 11:12:00,83.0,39.0,-100.00,ESE,112,5.0,11.0,21,0.00,,,0.00,719.000000,,2013-09-06 18:12:00,
2013-09-06 11:22:00,83.0,39.0,-100.00,ESE,112,5.0,11.0,21,0.00,,,0.00,719.000000,,2013-09-06 18:22:00,
2013-09-06 11:52:00,88.0,33.0,-100.00,NNW,327,6.0,15.0,14,0.00,,,0.00,888.000000,,2013-09-06 18:52:00,
2013-09-06 12:02:00,88.0,33.0,-100.00,NNW,327,6.0,15.0,14,0.00,,,0.00,888.000000,,2013-09-06 19:02:00,
2013-09-06 12:11:00,88.0,33.0,-100.00,NNW,327,6.0,15.0,14,0.00,,,0.00,888.000000,,2013-09-06 19:11:00,
2013-09-06 12:21:00,88.0,33.0,-100.00,NNW,327,6.0,15.0,14,0.00,,,0.00,888.000000,,2013-09-06 19:21:00,
2013-09-06 12:52:00,90.0,33.0,-100.00,SW,219,8.0,18.0,13,0.00,,,0.00,992.000000,,2013-09-06 19:52:00,
2013-09-06 13:02:00,90.0,33.0,-100.00,SW,219,8.0,18.0,13,0.00,,,0.00,992.000000,,2013-09-06 20:02:00,
2013-09-06 13:23:00,90.0,33.0,-100.00,SW,219,8.0,18.0,13,0.00,,,0.00,992.000000,,2013-09-06 20:23:00,
2013-09-06 13:52:00,91.0,33.0,-100.00,SW,228,8.0,18.0,13,0.00,,,0.00,1024.000000,,2013-09-06 20:52:00,
2013-09-06 14:01:00,91.0,33.0,-100.00,SW,228,8.0,18.0,13,0.00,,,0.00,1024.000000,,2013-09-06 21:01:00,
2013-09-06 14:12:00,91.0,33.0,-100.00,SW,228,8.0,18.0,13,0.00,,,0.00,1024.000000,,2013-09-06 21:12:00,
2013-09-06 14:22:00,91.0,33.0,-100.00,SW,228,8.0,18.0,13,0.00,,,0.00,1024.000000,,2013-09-06 21:22:00,
2013-09-06 14:54:00,90.0,33.0,-100.00,NNE,32,8.0,24.0,13,0.00,,,0.00,985.000000,,2013-09-06 21:54:00,
2013-09-06 15:04:00,90.0,33.0,-100.00,NNE,32,8.0,24.0,13,0.00,,,0.00,985.000000,,2013-09-06 22:04:00,
2013-09-06 15:13:00,90.0,33.0,-100.00,NNE,32,8.0,24.0,13,0.00,,,0.00,985.000000,,2013-09-06 22:13:00,
2013-09-06 15:23:00,90.0,33.0,-100.00,NNE,32,8.0,24.0,13,0.00,,,0.00,985.000000,,2013-09-06 22:23:00,
2013-09-06 15:54:00,91.0,33.0,-100.00,NW,316,9.0,21.0,13,0.00,,,0.00,717.000000,,2013-09-06 22:54:00,
2013-09-06 16:03:00,91.0,33.0,-100.00,NW,316,9.0,21.0,13,0.00,,,0.00,717.000000,,2013-09-06 23:03:00,
2013-09-06 16:12:00,91.0,33.0,-100.00,NW,316,9.0,21.0,13,0.00,,,0.00,717.000000,,2013-09-06 23:12:00,
2013-09-06 16:23:00,91.0,33.0,-100.00,NW,316,9.0,21.0,13,0.00,,,0.00,717.000000,,2013-09-06 23:23:00,
2013-09-06 16:52:00,90.0,33.0,-100.00,WNW,288,10.0,22.0,13,0.00,,,0.00,730.000000,,2013-09-06 23:52:00,
2013-09-06 17:01:00,90.0,33.0,-100.00,WNW,288,10.0,22.0,13,0.00,,,0.00,730.000000,,2013-09-07 00:01:00,
2013-09-06 17:12:00,90.0,33.0,-100.00,WNW,288,10.0,22.0,13,0.00,,,0.00,730.000000,,2013-09-07 00:12:00,
2013-09-06 17:22:00,90.0,33.0,-100.00,WNW,288,10.0,22.0,13,0.00,,,0.00,730.000000,,2013-09-07 00:22:00,
2013-09-06 17:52:00,87.0,32.0,-100.00,South,185,10.0,20.0,14,0.00,,,0.00,511.000000,,2013-09-07 00:52:00,
2013-09-06 18:02:00,87.0,32.0,-100.00,South,185,10.0,20.0,14,0.00,,,0.00,511.000000,,2013-09-07 01:02:00,
2013-09-06 18:12:00,87.0,32.0,-100.00,South,185,10.0,20.0,14,0.00,,,0.00,511.000000,,2013-09-07 01:12:00,
2013-09-06 18:21:00,87.0,32.0,-100.00,South,185,10.0,20.0,14,0.00,,,0.00,511.000000,,2013-09-07 01:21:00,
2013-09-06 18:53:00,84.0,34.0,-100.00,North,7,9.0,19.0,17,0.00,,,0.00,271.000000,,2013-09-07 01:53:00,
2013-09-06 19:02:00,84.0,34.0,-100.00,North,7,9.0,19.0,17,0.00,,,0.00,271.000000,,2013-09-07 02:02:00,
2013-09-06 19:12:00,84.0,34.0,-100.00,North,7,9.0,19.0,17,0.00,,,0.00,271.000000,,2013-09-07 02:12:00,
2013-09-06 19:23:00,84.0,34.0,-100.00,North,7,9.0,19.0,17,0.00,,,0.00,271.000000,,2013-09-07 02:23:00,
2013-09-06 19:52:00,77.0,36.0,-100.00,SSW,210,7.0,16.0,23,0.00,,,0.00,26.000000,,2013-09-07 02:52:00,
2013-09-06 20:02:00,77.0,36.0,-100.00,SSW,210,7.0,16.0,23,0.00,,,0.00,26.000000,,2013-09-07 03:02:00,
2013-09-06 20:11:00,77.0,36.0,-100.00,SSW,210,7.0,16.0,23,0.00,,,0.00,26.000000,,2013-09-07 03:11:00,
2013-09-06 20:23:00,77.0,36.0,-100.00,SSW,210,7.0,16.0,23,0.00,,,0.00,26.000000,,2013-09-07 03:23:00,
2013-09-06 20:55:00,73.0,36.0,-100.00,WNW,284,7.0,12.0,26,0.00,,,0.00,0.000000,,2013-09-07 03:55:00,
2013-09-06 21:03:00,73.0,36.0,-100.00,WNW,284,7.0,12.0,26,0.00,,,0.00,0.000000,,2013-09-07 04:03:00,
2013-09-06 21:14:00,73.0,36.0,-100.00,WNW,284,7.0,12.0,26,0.00,,,0.00,0.000000,,2013-09-07 04:14:00,
2013-09-06 21:23:00,73.0,36.0,-100.00,WNW,284,7.0,12.0,26,0.00,,,0.00,0.000000,,2013-09-07 04:23:00,
2013-09-06 21:54:00,70.0,38.0,-100.00,North,353,4.0,11.0,31,0.00,,,0.00,0.000000,,2013-09-07 04:54:00,
2013-09-06 22:03:00,70.0,38.0,-100.00,North,353,4.0,11.0,31,0.00,,,0.00,0.000000,,2013-09-07 05:03:00,
2013-09-06 22:23:00,70.0,38.0,-100.00,North,353,4.0,11.0,31,0.00,,,0.00,0.000000,,2013-09-07 05:23:00,
2013-09-06 23:21:00,66.0,39.0,-100.00,NW,316,5.0,8.0,37,0.00,,,0.00,0.000000,,2013-09-07 06:21:00,
2013-09-06 23:52:00,67.0,41.0,-100.00,West,274,5.0,8.0,39,0.00,,,0.00,0.000000,,2013-09-07 06:52:00,